createdAt,value
2023-03-23T15:59:05.296Z,16.90
2023-03-23T16:01:39.641Z,16.80
2023-03-23T16:04:16.613Z,16.80
2023-03-23T16:06:56.316Z,16.70
2023-03-23T16:09:28.086Z,16.80
2023-03-23T16:11:59.822Z,16.70
2023-03-23T16:14:31.516Z,16.70
2023-03-23T16:17:03.817Z,16.70
2023-03-23T16:19:36.276Z,16.60
2023-03-23T16:22:09.684Z,16.60
2023-03-23T16:24:41.454Z,16.50
2023-03-23T16:27:13.386Z,16.50
2023-03-23T16:30:02.271Z,16.40
2023-03-23T16:35:07.235Z,16.40
2023-03-23T16:37:39.557Z,16.40
2023-03-23T16:40:12.525Z,16.30
2023-03-23T16:42:44.879Z,16.40
2023-03-23T16:45:17.842Z,16.30
2023-03-23T16:47:50.326Z,16.30
2023-03-23T16:50:22.305Z,16.20
2023-03-23T16:52:54.249Z,16.20
2023-03-23T16:55:27.065Z,16.10
2023-03-23T16:58:13.182Z,16.10
2023-03-23T17:00:50.818Z,16.10
2023-03-23T17:03:22.694Z,16.00
2023-03-23T17:05:54.738Z,16.00
2023-03-23T17:08:26.449Z,16.00
2023-03-23T17:10:58.143Z,16.00
2023-03-23T17:13:29.975Z,16.00
2023-03-23T17:16:01.759Z,15.90
2023-03-23T17:18:33.477Z,15.90
2023-03-23T17:21:05.424Z,15.90
2023-03-23T17:23:37.366Z,15.80
2023-03-23T17:26:09.115Z,15.70
2023-03-23T17:28:41.070Z,15.60
2023-03-23T17:31:12.980Z,15.60
2023-03-23T17:33:44.764Z,15.50
2023-03-23T17:36:16.622Z,15.50
2023-03-23T17:38:48.570Z,15.50
2023-03-23T17:41:23.220Z,15.50
2023-03-23T17:43:55.052Z,15.50
2023-03-23T17:46:27.191Z,15.50
2023-03-23T17:48:59.021Z,15.50
2023-03-23T17:51:30.863Z,15.40
2023-03-23T17:54:02.629Z,15.40
2023-03-23T17:56:34.593Z,15.40
2023-03-23T17:59:07.228Z,15.30
2023-03-23T18:01:38.978Z,15.30
2023-03-23T18:04:10.686Z,15.30
2023-03-23T18:06:42.821Z,15.20
2023-03-23T18:09:15.486Z,15.20
2023-03-23T18:11:47.247Z,15.20
2023-03-23T18:14:19.702Z,15.10
2023-03-23T18:16:53.062Z,15.00
2023-03-23T18:19:24.850Z,15.00
2023-03-23T18:21:56.538Z,14.90
2023-03-23T18:24:28.279Z,14.90
2023-03-23T18:27:02.091Z,14.90
2023-03-23T18:29:33.826Z,14.80
2023-03-23T18:32:08.073Z,14.70
2023-03-23T18:34:43.442Z,14.70
2023-03-23T18:37:15.275Z,14.60
2023-03-23T18:39:47.156Z,14.60
2023-03-23T18:42:19.193Z,14.60
2023-03-23T18:44:50.895Z,14.50
2023-03-23T18:47:22.662Z,14.50
2023-03-23T18:49:55.952Z,14.60
2023-03-23T18:52:30.706Z,14.60
2023-03-23T18:55:02.437Z,14.60
2023-03-23T18:57:34.366Z,14.60
2023-03-23T19:00:07.166Z,14.60
2023-03-23T19:02:39.918Z,14.60
2023-03-23T19:05:12.091Z,14.50
2023-03-23T19:07:43.812Z,14.50
2023-03-23T19:10:17.195Z,14.50
2023-03-23T19:12:50.418Z,14.50
2023-03-23T19:15:24.358Z,14.50
2023-03-23T19:17:56.640Z,14.50
2023-03-23T19:20:45.450Z,14.50
2023-03-23T19:23:22.218Z,14.50
2023-03-23T19:25:54.935Z,14.60
2023-03-23T19:31:02.179Z,14.50
2023-03-23T19:33:34.029Z,14.50
2023-03-23T19:36:11.868Z,14.40
2023-03-23T19:38:45.335Z,14.40
2023-03-23T19:41:19.383Z,14.40
2023-03-23T19:43:51.591Z,14.30
2023-03-23T19:46:23.873Z,14.30
2023-03-23T19:48:56.471Z,14.20
2023-03-23T19:51:28.527Z,14.20
2023-03-23T19:54:00.730Z,14.20
2023-03-23T19:56:34.439Z,14.20
2023-03-23T19:59:09.517Z,14.10
2023-03-23T20:01:42.402Z,14.10
2023-03-23T20:04:14.332Z,14.10
2023-03-23T20:06:46.307Z,14.00
2023-03-23T20:09:18.519Z,14.00
2023-03-23T20:11:50.439Z,14.00
2023-03-23T20:14:22.248Z,14.00
2023-03-23T20:16:53.989Z,14.00
2023-03-23T20:19:25.973Z,13.90
2023-03-23T20:21:57.712Z,13.90
2023-03-23T20:24:29.522Z,13.90
2023-03-23T20:27:03.685Z,13.90
2023-03-23T20:29:35.705Z,13.90
2023-03-23T20:32:08.548Z,13.80
2023-03-23T20:34:40.352Z,13.80
2023-03-23T20:37:15.961Z,13.80
2023-03-23T20:39:48.596Z,13.80
2023-03-23T20:42:21.368Z,13.80
2023-03-23T20:44:53.096Z,13.80
2023-03-23T20:47:24.840Z,13.80
2023-03-23T20:49:56.768Z,13.80
2023-03-23T20:52:28.498Z,13.80
2023-03-23T20:55:00.898Z,15.40
2023-03-23T20:57:34.177Z,13.70
2023-03-23T21:00:06.929Z,13.70
2023-03-23T21:02:39.327Z,13.70
2023-03-23T21:05:11.198Z,13.70
2023-03-23T21:07:42.876Z,13.70
2023-03-23T21:10:14.576Z,13.70
2023-03-23T21:12:46.257Z,13.70
2023-03-23T21:15:18.116Z,13.70
2023-03-23T21:17:50.059Z,13.70
2023-03-23T21:20:23.799Z,13.70
2023-03-23T21:22:55.648Z,13.70
2023-03-23T21:25:34.297Z,13.70
2023-03-23T21:28:07.224Z,13.70
2023-03-23T21:30:45.432Z,13.70
2023-03-23T21:33:17.447Z,13.70
2023-03-23T21:35:49.214Z,13.70
2023-03-23T21:38:26.285Z,13.70
2023-03-23T21:41:00.444Z,13.60
2023-03-23T21:43:32.155Z,13.70
2023-03-23T21:46:05.924Z,13.70
2023-03-23T21:48:41.378Z,13.60
2023-03-23T21:51:15.018Z,13.60
2023-03-23T21:53:46.973Z,13.60
2023-03-23T21:56:18.829Z,13.60
2023-03-23T21:58:51.557Z,13.50
2023-03-23T22:01:23.646Z,13.60
2023-03-23T22:03:56.161Z,13.60
2023-03-23T22:06:28.557Z,13.50
2023-03-23T22:09:05.355Z,13.50
2023-03-23T22:11:38.702Z,13.40
2023-03-23T22:14:10.440Z,13.40
2023-03-23T22:16:42.176Z,13.40
2023-03-23T22:19:13.958Z,13.40
2023-03-23T22:21:46.157Z,13.40
2023-03-23T22:24:18.726Z,13.40
2023-03-23T22:26:50.898Z,13.40
2023-03-23T22:29:22.982Z,13.30
2023-03-23T22:31:54.741Z,13.30
2023-03-23T22:34:26.457Z,13.20
2023-03-23T22:36:58.210Z,13.20
2023-03-23T22:39:29.949Z,13.10
2023-03-23T22:42:01.694Z,13.20
2023-03-23T22:44:33.773Z,13.20
2023-03-23T22:47:05.687Z,13.20
2023-03-23T22:49:37.490Z,13.20
2023-03-23T22:52:09.232Z,13.30
2023-03-23T22:54:40.985Z,13.30
2023-03-23T22:57:12.739Z,13.30
2023-03-23T22:59:48.408Z,13.30
2023-03-23T23:02:20.147Z,13.30
2023-03-23T23:04:52.490Z,13.30
2023-03-23T23:07:24.167Z,13.30
2023-03-23T23:09:55.852Z,13.30
2023-03-23T23:12:31.640Z,13.30
2023-03-23T23:15:05.799Z,13.20
2023-03-23T23:17:38.481Z,13.20
2023-03-23T23:20:12.794Z,13.20
2023-03-23T23:22:45.124Z,13.20
2023-03-23T23:25:17.176Z,13.10
2023-03-23T23:27:49.162Z,13.10
2023-03-23T23:30:21.194Z,13.10
2023-03-23T23:32:53.626Z,13.10
2023-03-23T23:35:25.833Z,13.10
2023-03-23T23:37:57.820Z,13.10
2023-03-23T23:40:29.766Z,13.10
2023-03-23T23:43:02.834Z,13.10
2023-03-23T23:45:34.610Z,13.10
2023-03-23T23:48:07.239Z,13.10
2023-03-23T23:50:39.067Z,13.20
2023-03-23T23:53:11.003Z,13.20
2023-03-23T23:55:43.321Z,13.20
2023-03-23T23:58:15.890Z,13.20
